Time;durP1;ratioP1;P1;durP2;ratioP2;P2;SDS_P1;SDS_P2;PMS_P1;PMS_P2;Temp;Humidity;BMP_temperature;BMP_pressure;BME280_temperature;BME280_humidity;BME280_pressure;Samples;Min_cycle;Max_cycle;Signal;HPM_P1;HPM_P2
2021/12/29 00:01:04;;;;;;;6.15;4.10;;;;;;;;;;4984095;28;93987;-69
2021/12/29 00:03:31;;;;;;;6.05;3.70;;;;;;;;;;4973501;28;92476;-69
2021/12/29 00:05:57;;;;;;;5.00;4.47;;;;;;;;;;4979565;28;93401;-69
2021/12/29 00:08:23;;;;;;;9.23;4.60;;;;;;;;;;4991287;28;93373;-68
2021/12/29 00:10:54;;;;;;;5.30;3.80;;;;;;;;;;4992688;28;92828;-68
2021/12/29 00:13:22;;;;;;;9.27;4.80;;;;;;;;;;4991428;28;94212;-69
2021/12/29 00:15:48;;;;;;;7.03;4.70;;;;;;;;;;4990418;28;95755;-68
2021/12/29 00:18:14;;;;;;;11.50;5.45;;;;;;;;;;4992672;28;92610;-69
2021/12/29 00:20:41;;;;;;;17.75;6.22;;;;;;;;;;4991811;28;93616;-69
2021/12/29 00:23:08;;;;;;;14.82;7.25;;;;;;;;;;4982333;28;94098;-69
2021/12/29 00:25:38;;;;;;;11.57;7.65;;;;;;;;;;4976304;28;93674;-69
2021/12/29 00:28:04;;;;;;;17.02;9.40;;;;;;;;;;4989851;28;94331;-68
2021/12/29 00:30:31;;;;;;;12.15;7.53;;;;;;;;;;4984193;28;92653;-68
2021/12/29 00:32:57;;;;;;;23.88;10.65;;;;;;;;;;4993270;28;92863;-69
2021/12/29 00:35:47;;;;;;;29.83;11.30;;;;;;;;;;4968677;28;93160;-69
2021/12/29 00:38:33;;;;;;;21.75;9.88;;;;;;;;;;4977021;28;92479;-68
2021/12/29 00:41:28;;;;;;;24.25;10.52;;;;;;;;;;4989472;28;95051;-68
2021/12/29 00:44:32;;;;;;;24.30;11.02;;;;;;;;;;4995249;28;93355;-68
2021/12/29 00:47:09;;;;;;;28.90;13.32;;;;;;;;;;5016708;28;92981;-69
2021/12/29 00:49:37;;;;;;;20.17;10.07;;;;;;;;;;4974408;28;93716;-69
2021/12/29 00:52:05;;;;;;;33.85;12.32;;;;;;;;;;4994287;28;92504;-68
2021/12/29 00:54:32;;;;;;;22.75;10.45;;;;;;;;;;4994392;28;94045;-69
2021/12/29 00:56:58;;;;;;;22.38;11.48;;;;;;;;;;4991968;28;93677;-68
2021/12/29 00:59:25;;;;;;;23.60;11.32;;;;;;;;;;4995330;28;93157;-69
2021/12/29 01:01:51;;;;;;;24.33;11.70;;;;;;;;;;4994346;28;94080;-69
2021/12/29 01:04:18;;;;;;;24.42;12.30;;;;;;;;;;4994295;28;93967;-69
2021/12/29 01:06:45;;;;;;;26.65;10.73;;;;;;;;;;4995604;28;95121;-69
2021/12/29 01:09:11;;;;;;;23.80;10.93;;;;;;;;;;4994246;28;93615;-69
2021/12/29 01:11:38;;;;;;;34.90;12.35;;;;;;;;;;4995499;28;92460;-68
2021/12/29 01:14:04;;;;;;;24.98;11.20;;;;;;;;;;4995051;28;93199;-69
2021/12/29 01:19:01;;;;;;;27.67;11.15;;;;;;;;;;4975833;28;92451;-69
2021/12/29 01:21:28;;;;;;;22.38;11.50;;;;;;;;;;4992366;28;93958;-68
2021/12/29 01:23:54;;;;;;;21.45;11.25;;;;;;;;;;4994687;28;93581;-68
2021/12/29 01:26:21;;;;;;;23.33;10.68;;;;;;;;;;4982665;28;93181;-69
2021/12/29 01:28:47;;;;;;;28.35;11.10;;;;;;;;;;4997336;28;93465;-68
2021/12/29 01:31:13;;;;;;;23.48;10.88;;;;;;;;;;5001481;28;94888;-68
2021/12/29 01:33:40;;;;;;;18.70;8.77;;;;;;;;;;5014507;28;95611;-68
2021/12/29 01:36:06;;;;;;;23.80;11.13;;;;;;;;;;5000016;28;94414;-68
2021/12/29 01:38:32;;;;;;;20.92;9.63;;;;;;;;;;4993835;28;92692;-69
2021/12/29 01:40:59;;;;;;;26.17;11.40;;;;;;;;;;4994627;28;93685;-68
2021/12/29 01:43:25;;;;;;;22.77;9.75;;;;;;;;;;4994121;28;94518;-68
2021/12/29 01:45:52;;;;;;;22.67;10.68;;;;;;;;;;4994345;28;92791;-68
2021/12/29 01:48:18;;;;;;;26.02;10.13;;;;;;;;;;4984007;28;93109;-69
2021/12/29 01:50:49;;;;;;;29.05;10.90;;;;;;;;;;4987322;28;94023;-68
2021/12/29 01:53:22;;;;;;;25.85;12.02;;;;;;;;;;4983214;28;93037;-68
2021/12/29 01:55:50;;;;;;;19.55;11.50;;;;;;;;;;4972400;28;96624;-69
2021/12/29 01:58:17;;;;;;;19.13;10.90;;;;;;;;;;4978249;28;92533;-68
2021/12/29 02:00:44;;;;;;;21.67;11.00;;;;;;;;;;4993994;28;94787;-69
2021/12/29 02:03:10;;;;;;;17.85;9.30;;;;;;;;;;4999235;28;94030;-68
2021/12/29 02:05:37;;;;;;;19.70;9.48;;;;;;;;;;5002461;28;92498;-68
2021/12/29 02:08:05;;;;;;;22.80;10.20;;;;;;;;;;4994307;28;96267;-68
2021/12/29 02:10:40;;;;;;;19.75;10.27;;;;;;;;;;4980696;28;93980;-68
2021/12/29 02:13:10;;;;;;;20.85;10.80;;;;;;;;;;4984025;28;92042;-68
2021/12/29 02:15:36;;;;;;;34.03;11.55;;;;;;;;;;4993296;28;94770;-68
2021/12/29 02:18:13;;;;;;;25.55;12.85;;;;;;;;;;4977943;28;92646;-68
2021/12/29 02:20:40;;;;;;;33.15;13.07;;;;;;;;;;4986420;28;95092;-68
2021/12/29 02:23:15;;;;;;;27.23;12.38;;;;;;;;;;4995991;28;93134;-69
2021/12/29 02:25:48;;;;;;;28.85;13.82;;;;;;;;;;4982190;28;92529;-69
2021/12/29 02:28:21;;;;;;;30.33;14.98;;;;;;;;;;4974070;28;94879;-69
2021/12/29 02:30:47;;;;;;;27.17;13.82;;;;;;;;;;4988597;28;94214;-69
2021/12/29 02:33:14;;;;;;;35.97;14.77;;;;;;;;;;4997810;28;93362;-68
2021/12/29 02:35:42;;;;;;;34.72;14.00;;;;;;;;;;4987201;28;92585;-69
2021/12/29 02:38:18;;;;;;;39.30;15.73;;;;;;;;;;4976392;28;91910;-69
2021/12/29 02:40:51;;;;;;;33.90;14.95;;;;;;;;;;4989881;28;93163;-69
2021/12/29 02:43:21;;;;;;;44.72;16.13;;;;;;;;;;4993513;28;94691;-68
2021/12/29 02:45:50;;;;;;;44.70;16.80;;;;;;;;;;5006886;28;94882;-68
2021/12/29 02:48:18;;;;;;;39.65;15.57;;;;;;;;;;4992010;28;96413;-68
2021/12/29 02:50:45;;;;;;;31.05;14.95;;;;;;;;;;4992874;28;94145;-68
2021/12/29 02:53:12;;;;;;;34.10;15.68;;;;;;;;;;4993464;28;92950;-69
2021/12/29 02:55:38;;;;;;;39.75;16.23;;;;;;;;;;4994756;28;94250;-69
2021/12/29 02:58:05;;;;;;;44.97;16.48;;;;;;;;;;4993348;28;92480;-68
2021/12/29 03:00:31;;;;;;;47.83;16.90;;;;;;;;;;4982097;28;93010;-69
2021/12/29 03:02:57;;;;;;;48.17;18.15;;;;;;;;;;4983039;28;92544;-68
2021/12/29 03:05:26;;;;;;;48.47;18.58;;;;;;;;;;4992880;28;92656;-68
2021/12/29 03:07:55;;;;;;;45.78;16.80;;;;;;;;;;4991210;28;93992;-68
2021/12/29 03:10:22;;;;;;;42.05;17.45;;;;;;;;;;4977465;28;94869;-69
2021/12/29 03:12:48;;;;;;;32.47;15.23;;;;;;;;;;4988813;28;92940;-69
2021/12/29 03:15:15;;;;;;;41.03;14.90;;;;;;;;;;5012362;28;92520;-69
2021/12/29 03:17:41;;;;;;;49.47;16.88;;;;;;;;;;4985854;28;93954;-68
2021/12/29 03:20:09;;;;;;;42.17;15.82;;;;;;;;;;4992051;28;92981;-69
2021/12/29 03:22:35;;;;;;;42.95;15.05;;;;;;;;;;4991313;28;94173;-69
2021/12/29 03:25:01;;;;;;;51.15;17.50;;;;;;;;;;4991745;28;94406;-69
2021/12/29 03:27:28;;;;;;;53.75;17.90;;;;;;;;;;4993257;28;93962;-69
2021/12/29 03:29:54;;;;;;;43.33;16.98;;;;;;;;;;4991563;28;93677;-68
2021/12/29 03:32:36;;;;;;;44.55;18.63;;;;;;;;;;4992523;28;92460;-68
2021/12/29 03:35:02;;;;;;;52.88;17.15;;;;;;;;;;4990728;28;95998;-68
2021/12/29 03:37:28;;;;;;;51.47;16.25;;;;;;;;;;4991906;28;93164;-68
2021/12/29 03:39:55;;;;;;;56.30;15.63;;;;;;;;;;4990362;28;92527;-68
2021/12/29 03:42:21;;;;;;;51.03;14.30;;;;;;;;;;4992832;28;94421;-69
2021/12/29 03:44:47;;;;;;;47.65;12.88;;;;;;;;;;4991274;28;92752;-69
2021/12/29 03:47:14;;;;;;;53.90;10.15;;;;;;;;;;4992199;28;94058;-68
2021/12/29 03:49:40;;;;;;;36.85;9.68;;;;;;;;;;4991385;28;93539;-68
2021/12/29 03:52:06;;;;;;;24.58;7.40;;;;;;;;;;4991818;28;92023;-68
2021/12/29 03:54:33;;;;;;;36.40;7.65;;;;;;;;;;4992542;28;93992;-68
2021/12/29 03:57:02;;;;;;;27.08;7.05;;;;;;;;;;4993186;28;93222;-68
2021/12/29 03:59:28;;;;;;;23.58;6.75;;;;;;;;;;4991234;28;94958;-68
2021/12/29 04:01:55;;;;;;;27.25;6.57;;;;;;;;;;4995476;28;95715;-68
2021/12/29 04:04:21;;;;;;;31.38;6.88;;;;;;;;;;4992570;28;92443;-68
2021/12/29 04:06:48;;;;;;;36.25;6.80;;;;;;;;;;4990957;28;93057;-69
2021/12/29 04:09:15;;;;;;;31.75;7.28;;;;;;;;;;4986707;28;94212;-69
2021/12/29 04:11:42;;;;;;;25.10;7.35;;;;;;;;;;4987742;28;92554;-69
2021/12/29 04:14:09;;;;;;;28.67;6.35;;;;;;;;;;4991903;28;93345;-68
2021/12/29 04:16:41;;;;;;;24.45;6.90;;;;;;;;;;4992833;28;93478;-69
2021/12/29 04:19:29;;;;;;;35.78;7.50;;;;;;;;;;4991361;28;94035;-68
2021/12/29 04:21:57;;;;;;;36.70;7.63;;;;;;;;;;4992354;28;94031;-69
2021/12/29 04:24:23;;;;;;;21.50;5.88;;;;;;;;;;4983581;28;96232;-69
2021/12/29 04:26:50;;;;;;;19.00;6.50;;;;;;;;;;4971684;28;95447;-69
2021/12/29 04:29:16;;;;;;;29.30;7.07;;;;;;;;;;4991671;28;92904;-69
2021/12/29 04:31:43;;;;;;;29.30;7.40;;;;;;;;;;4992851;28;92549;-68
2021/12/29 04:34:10;;;;;;;28.83;7.65;;;;;;;;;;4973214;28;94000;-68
2021/12/29 04:36:36;;;;;;;21.00;7.57;;;;;;;;;;4980052;28;94559;-68
2021/12/29 04:39:04;;;;;;;17.42;7.43;;;;;;;;;;4990891;28;93796;-68
2021/12/29 04:41:30;;;;;;;23.52;8.18;;;;;;;;;;4992315;28;94948;-68
2021/12/29 04:43:57;;;;;;;22.42;8.50;;;;;;;;;;5002133;28;93846;-68
2021/12/29 04:46:35;;;;;;;19.33;6.88;;;;;;;;;;4994637;28;92459;-69
2021/12/29 04:49:02;;;;;;;17.55;7.10;;;;;;;;;;4989652;28;96525;-69
2021/12/29 04:51:35;;;;;;;15.85;6.90;;;;;;;;;;4974989;28;92445;-69
2021/12/29 04:54:05;;;;;;;18.92;6.70;;;;;;;;;;4990443;28;93075;-69
2021/12/29 04:56:32;;;;;;;12.98;6.00;;;;;;;;;;4989985;28;93801;-69
2021/12/29 04:58:58;;;;;;;12.82;7.25;;;;;;;;;;4992197;28;92543;-69
2021/12/29 05:01:25;;;;;;;13.85;6.20;;;;;;;;;;4977705;28;93859;-69
2021/12/29 05:03:53;;;;;;;15.75;6.05;;;;;;;;;;4972568;28;94340;-68
2021/12/29 05:09:04;;;;;;;14.88;6.00;;;;;;;;;;4979565;28;93442;-69
2021/12/29 05:11:30;;;;;;;7.93;5.47;;;;;;;;;;4990392;28;92500;-69
2021/12/29 05:13:57;;;;;;;12.60;5.35;;;;;;;;;;4990638;28;94831;-68
2021/12/29 05:16:27;;;;;;;13.15;5.95;;;;;;;;;;4985770;28;93728;-69
2021/12/29 05:18:56;;;;;;;10.77;5.50;;;;;;;;;;4991071;28;92482;-69
2021/12/29 05:21:23;;;;;;;9.57;6.18;;;;;;;;;;4993095;28;93961;-68
2021/12/29 05:23:49;;;;;;;19.33;6.40;;;;;;;;;;4989871;28;93522;-69
2021/12/29 05:26:15;;;;;;;13.95;6.47;;;;;;;;;;4991634;28;92481;-69
2021/12/29 05:28:42;;;;;;;15.93;6.85;;;;;;;;;;4993949;28;94798;-69
2021/12/29 05:31:09;;;;;;;14.23;6.13;;;;;;;;;;4992165;28;92052;-69
2021/12/29 05:33:38;;;;;;;9.50;5.15;;;;;;;;;;4995164;28;93417;-69
2021/12/29 05:36:05;;;;;;;5.88;5.05;;;;;;;;;;4992372;28;94149;-69
2021/12/29 05:38:31;;;;;;;9.57;5.20;;;;;;;;;;4973601;28;95166;-69
2021/12/29 05:40:58;;;;;;;10.25;4.40;;;;;;;;;;4976532;28;95674;-69
2021/12/29 05:43:24;;;;;;;8.38;3.90;;;;;;;;;;4995292;28;93740;-68
2021/12/29 05:45:51;;;;;;;6.55;3.42;;;;;;;;;;4994468;28;92474;-68
2021/12/29 05:48:21;;;;;;;6.53;4.22;;;;;;;;;;4994401;28;93946;-69
2021/12/29 05:50:47;;;;;;;9.38;4.10;;;;;;;;;;4997434;28;94238;-68
2021/12/29 05:53:13;;;;;;;3.75;3.30;;;;;;;;;;4994728;28;94422;-68
2021/12/29 05:55:41;;;;;;;7.32;3.40;;;;;;;;;;4978247;28;93495;-68
2021/12/29 05:58:09;;;;;;;10.20;4.13;;;;;;;;;;4989220;28;92730;-70
2021/12/29 06:00:37;;;;;;;10.15;4.18;;;;;;;;;;4994102;28;93908;-69
2021/12/29 06:03:03;;;;;;;9.25;4.10;;;;;;;;;;4992823;28;95553;-69
2021/12/29 06:05:30;;;;;;;15.02;4.57;;;;;;;;;;4994639;28;92492;-69
2021/12/29 06:07:56;;;;;;;12.35;4.90;;;;;;;;;;4994542;28;92931;-69
2021/12/29 06:10:23;;;;;;;14.05;4.07;;;;;;;;;;4994202;28;94334;-69
2021/12/29 06:12:49;;;;;;;19.40;5.68;;;;;;;;;;4997165;28;94277;-69
2021/12/29 06:15:15;;;;;;;21.83;6.40;;;;;;;;;;4986701;28;93459;-67
2021/12/29 06:17:42;;;;;;;24.75;7.43;;;;;;;;;;4994087;28;92545;-68
2021/12/29 06:20:10;;;;;;;30.10;8.82;;;;;;;;;;4995043;28;94398;-68
2021/12/29 06:22:36;;;;;;;34.53;7.57;;;;;;;;;;5007681;28;94483;-67
2021/12/29 06:25:03;;;;;;;30.17;8.13;;;;;;;;;;4996625;28;92620;-68
2021/12/29 06:27:31;;;;;;;32.35;8.40;;;;;;;;;;4993211;28;94893;-68
2021/12/29 06:29:57;;;;;;;27.30;6.95;;;;;;;;;;4993736;28;93370;-68
2021/12/29 06:32:25;;;;;;;32.50;8.07;;;;;;;;;;4987751;28;92472;-68
2021/12/29 06:34:52;;;;;;;34.47;7.97;;;;;;;;;;4996319;28;93951;-68
2021/12/29 06:37:19;;;;;;;27.83;7.13;;;;;;;;;;4994364;28;92610;-68
2021/12/29 06:39:45;;;;;;;31.73;7.25;;;;;;;;;;4993342;28;94306;-68
2021/12/29 06:42:13;;;;;;;32.53;6.97;;;;;;;;;;4997883;28;94242;-68
2021/12/29 06:44:39;;;;;;;43.10;6.95;;;;;;;;;;4994113;28;92060;-68
2021/12/29 06:47:06;;;;;;;33.33;6.93;;;;;;;;;;4994040;28;92558;-69
2021/12/29 06:49:32;;;;;;;44.65;7.20;;;;;;;;;;4993997;28;93584;-68
2021/12/29 06:52:00;;;;;;;34.78;6.95;;;;;;;;;;4992395;28;95982;-68
2021/12/29 06:54:26;;;;;;;34.15;6.72;;;;;;;;;;4996711;28;96419;-71
2021/12/29 06:56:52;;;;;;;35.15;6.80;;;;;;;;;;5000242;28;92534;-68
2021/12/29 06:59:19;;;;;;;30.98;7.53;;;;;;;;;;4981335;28;93824;-68
2021/12/29 07:01:46;;;;;;;34.13;7.40;;;;;;;;;;4987223;28;94167;-68
2021/12/29 07:04:13;;;;;;;41.92;8.70;;;;;;;;;;4995946;28;92455;-68
2021/12/29 07:06:39;;;;;;;46.25;9.77;;;;;;;;;;4993909;28;94088;-67
2021/12/29 07:09:06;;;;;;;40.85;9.15;;;;;;;;;;4994144;28;93822;-68
2021/12/29 07:11:33;;;;;;;46.50;9.43;;;;;;;;;;4993721;28;92465;-67
2021/12/29 07:14:03;;;;;;;24.40;8.48;;;;;;;;;;4992938;28;93029;-68
2021/12/29 07:16:30;;;;;;;30.83;8.40;;;;;;;;;;4993880;28;96596;-68
2021/12/29 07:18:56;;;;;;;44.38;9.80;;;;;;;;;;4985415;28;95530;-68
2021/12/29 07:21:22;;;;;;;30.50;8.13;;;;;;;;;;4993583;28;93473;-68
2021/12/29 07:23:50;;;;;;;30.83;8.15;;;;;;;;;;4988917;28;93829;-67
2021/12/29 07:26:17;;;;;;;38.17;9.77;;;;;;;;;;4993126;28;93245;-68
2021/12/29 07:28:43;;;;;;;33.47;10.00;;;;;;;;;;4986438;28;93948;-68
2021/12/29 07:31:09;;;;;;;33.92;9.10;;;;;;;;;;4990774;28;92596;-68
2021/12/29 07:33:36;;;;;;;27.15;8.95;;;;;;;;;;4986011;28;93507;-68
2021/12/29 07:36:02;;;;;;;32.63;9.73;;;;;;;;;;4982627;28;94307;-68
2021/12/29 07:38:31;;;;;;;39.20;10.07;;;;;;;;;;4986474;28;93582;-68
2021/12/29 07:40:57;;;;;;;43.38;9.90;;;;;;;;;;4971301;28;95857;-68
2021/12/29 07:43:23;;;;;;;46.78;10.80;;;;;;;;;;4972269;28;94023;-69
2021/12/29 07:45:51;;;;;;;41.25;10.77;;;;;;;;;;4973028;28;93909;-68
2021/12/29 07:48:19;;;;;;;41.72;9.98;;;;;;;;;;4983105;28;94005;-68
2021/12/29 07:50:45;;;;;;;40.10;10.43;;;;;;;;;;4984231;28;92519;-68
2021/12/29 07:53:11;;;;;;;43.17;11.55;;;;;;;;;;4987568;28;93236;-69
2021/12/29 07:55:38;;;;;;;30.98;9.15;;;;;;;;;;4989894;28;93374;-68
2021/12/29 07:58:04;;;;;;;31.08;9.50;;;;;;;;;;4979422;28;92084;-68
2021/12/29 08:00:30;;;;;;;34.50;10.70;;;;;;;;;;4988032;28;93193;-68
2021/12/29 08:02:57;;;;;;;32.10;11.18;;;;;;;;;;4998647;28;92710;-68
2021/12/29 08:05:23;;;;;;;30.58;10.32;;;;;;;;;;4996160;28;96324;-68
2021/12/29 08:07:50;;;;;;;37.42;9.95;;;;;;;;;;4984879;28;93501;-69
2021/12/29 08:10:16;;;;;;;34.90;10.68;;;;;;;;;;4993027;28;93196;-68
2021/12/29 08:12:43;;;;;;;28.80;10.88;;;;;;;;;;4984542;28;93961;-68
2021/12/29 08:15:10;;;;;;;40.63;11.00;;;;;;;;;;4982256;28;94493;-69
2021/12/29 08:17:36;;;;;;;36.72;10.77;;;;;;;;;;4987838;28;93073;-68
2021/12/29 08:20:04;;;;;;;25.65;9.85;;;;;;;;;;4991518;28;94057;-68
2021/12/29 08:22:30;;;;;;;26.10;10.00;;;;;;;;;;4995875;28;93696;-69
2021/12/29 08:24:56;;;;;;;26.00;11.00;;;;;;;;;;4992292;28;93224;-68
2021/12/29 08:27:23;;;;;;;36.03;11.05;;;;;;;;;;4991299;28;94015;-68
2021/12/29 08:29:49;;;;;;;29.92;11.48;;;;;;;;;;4989971;28;95232;-68
2021/12/29 08:32:16;;;;;;;23.45;11.15;;;;;;;;;;4992028;28;95473;-68
2021/12/29 08:34:42;;;;;;;20.40;11.52;;;;;;;;;;4991885;28;92624;-69
2021/12/29 08:37:08;;;;;;;30.17;11.63;;;;;;;;;;4994131;28;92387;-69
2021/12/29 08:39:35;;;;;;;23.92;10.98;;;;;;;;;;4991813;28;93213;-68
2021/12/29 08:42:01;;;;;;;22.60;11.35;;;;;;;;;;4972374;28;93927;-68
2021/12/29 08:44:27;;;;;;;31.65;11.38;;;;;;;;;;4974750;28;92516;-68
2021/12/29 08:46:54;;;;;;;47.78;12.50;;;;;;;;;;4971889;28;93515;-68
2021/12/29 08:49:20;;;;;;;38.65;12.20;;;;;;;;;;4971594;28;92563;-68
2021/12/29 08:51:47;;;;;;;29.20;12.35;;;;;;;;;;4972414;28;93430;-69
2021/12/29 08:54:14;;;;;;;30.25;12.10;;;;;;;;;;4976469;28;96600;-69
2021/12/29 08:56:40;;;;;;;42.85;11.85;;;;;;;;;;4991643;28;92585;-69
2021/12/29 08:59:06;;;;;;;27.30;11.00;;;;;;;;;;4988887;28;95464;-69
2021/12/29 09:01:33;;;;;;;25.00;11.15;;;;;;;;;;4976934;28;94201;-69
2021/12/29 09:04:00;;;;;;;28.10;11.13;;;;;;;;;;4976011;28;92507;-69
2021/12/29 09:06:26;;;;;;;23.85;10.93;;;;;;;;;;4992045;28;94387;-68
2021/12/29 09:08:54;;;;;;;23.63;10.35;;;;;;;;;;4979821;28;92633;-69
2021/12/29 09:11:21;;;;;;;36.20;10.77;;;;;;;;;;4976012;28;93324;-68
2021/12/29 09:13:47;;;;;;;22.13;10.95;;;;;;;;;;4974643;28;94284;-69
2021/12/29 09:16:14;;;;;;;24.52;10.25;;;;;;;;;;4976256;28;92432;-69
2021/12/29 09:18:40;;;;;;;24.05;9.65;;;;;;;;;;4992770;28;96124;-68
2021/12/29 09:21:12;;;;;;;31.25;11.00;;;;;;;;;;4995155;28;94540;-68
2021/12/29 09:23:38;;;;;;;28.67;10.43;;;;;;;;;;4981103;28;93027;-68
2021/12/29 09:26:05;;;;;;;21.83;9.30;;;;;;;;;;4997285;28;94442;-68
2021/12/29 09:28:32;;;;;;;11.95;6.22;;;;;;;;;;4993706;28;92997;-67
2021/12/29 09:30:59;;;;;;;20.13;9.05;;;;;;;;;;4990538;28;94167;-67
2021/12/29 09:33:25;;;;;;;18.45;8.88;;;;;;;;;;4980948;28;94504;-68
2021/12/29 09:35:55;;;;;;;13.90;7.75;;;;;;;;;;4985304;28;92060;-68
2021/12/29 09:38:21;;;;;;;16.75;8.88;;;;;;;;;;4995114;28;92441;-68
2021/12/29 09:40:48;;;;;;;16.17;7.05;;;;;;;;;;4994755;28;94229;-67
2021/12/29 09:43:14;;;;;;;22.75;9.10;;;;;;;;;;4982466;28;95277;-68
2021/12/29 09:45:41;;;;;;;17.90;8.73;;;;;;;;;;4982600;28;95515;-68
2021/12/29 09:48:08;;;;;;;19.13;8.07;;;;;;;;;;4998011;28;93294;-68
2021/12/29 09:50:34;;;;;;;13.85;8.18;;;;;;;;;;4994192;28;93950;-68
2021/12/29 09:53:01;;;;;;;24.67;8.90;;;;;;;;;;4997465;28;94529;-69
2021/12/29 09:55:27;;;;;;;14.13;8.02;;;;;;;;;;4991559;28;92575;-69
2021/12/29 09:57:55;;;;;;;16.25;8.90;;;;;;;;;;4994569;28;94111;-67
2021/12/29 10:00:30;;;;;;;22.45;9.32;;;;;;;;;;4996232;28;92828;-68
2021/12/29 10:02:57;;;;;;;22.63;8.23;;;;;;;;;;4994583;28;92469;-68
2021/12/29 10:05:27;;;;;;;22.55;9.35;;;;;;;;;;4998356;28;93471;-68
2021/12/29 10:07:57;;;;;;;17.13;8.32;;;;;;;;;;5009583;28;97262;-68
2021/12/29 10:10:24;;;;;;;12.85;8.35;;;;;;;;;;5007169;28;93603;-68
2021/12/29 10:12:50;;;;;;;18.63;9.38;;;;;;;;;;4993628;28;94243;-67
2021/12/29 10:15:16;;;;;;;24.98;9.40;;;;;;;;;;4995801;28;92934;-68
2021/12/29 10:17:43;;;;;;;24.38;9.50;;;;;;;;;;4994244;28;93492;-68
2021/12/29 10:20:11;;;;;;;20.70;8.50;;;;;;;;;;4994644;28;93685;-68
2021/12/29 10:22:38;;;;;;;14.27;9.30;;;;;;;;;;4994312;28;92445;-68
2021/12/29 10:25:06;;;;;;;17.88;8.80;;;;;;;;;;4994422;28;94125;-68
2021/12/29 10:27:32;;;;;;;23.50;8.77;;;;;;;;;;4993334;28;94175;-69
2021/12/29 10:29:58;;;;;;;32.75;10.00;;;;;;;;;;4994475;28;92540;-69
2021/12/29 10:32:25;;;;;;;17.75;8.68;;;;;;;;;;5010721;28;95173;-68
2021/12/29 10:34:52;;;;;;;12.85;7.32;;;;;;;;;;5014756;28;93282;-68
2021/12/29 10:37:20;;;;;;;13.77;6.28;;;;;;;;;;5014558;28;94027;-68
2021/12/29 10:39:48;;;;;;;9.05;3.42;;;;;;;;;;5014927;28;94110;-66
2021/12/29 10:42:16;;;;;;;14.23;8.27;;;;;;;;;;4998787;28;92502;-67
2021/12/29 10:44:47;;;;;;;10.68;7.93;;;;;;;;;;4992221;28;93239;-68
2021/12/29 10:47:16;;;;;;;18.95;8.70;;;;;;;;;;4992276;28;94505;-68
2021/12/29 10:49:51;;;;;;;12.38;8.25;;;;;;;;;;4994767;28;92111;-68
2021/12/29 10:52:47;;;;;;;13.82;8.75;;;;;;;;;;4978525;28;93212;-67
2021/12/29 10:55:19;;;;;;;10.48;6.03;;;;;;;;;;4975876;28;94299;-68
2021/12/29 10:57:46;;;;;;;19.37;9.07;;;;;;;;;;4972343;28;94976;-68
2021/12/29 11:00:35;;;;;;;16.73;8.30;;;;;;;;;;4973191;28;93129;-68
2021/12/29 11:03:08;;;;;;;16.77;8.13;;;;;;;;;;4974265;28;92447;-68
2021/12/29 11:05:36;;;;;;;13.57;8.63;;;;;;;;;;4974476;28;92466;-68
2021/12/29 11:08:06;;;;;;;11.52;8.18;;;;;;;;;;4973331;28;94198;-69
2021/12/29 11:10:32;;;;;;;13.70;8.02;;;;;;;;;;4976834;28;92471;-68
2021/12/29 11:12:59;;;;;;;12.40;7.55;;;;;;;;;;4980273;28;94472;-69
2021/12/29 11:15:27;;;;;;;14.52;8.48;;;;;;;;;;4996460;28;92739;-67
2021/12/29 11:17:55;;;;;;;9.10;8.13;;;;;;;;;;4990420;28;93604;-68
2021/12/29 11:20:23;;;;;;;17.40;11.15;;;;;;;;;;4983133;28;93214;-68
2021/12/29 11:22:51;;;;;;;14.93;10.10;;;;;;;;;;4977201;28;95334;-68
2021/12/29 11:25:28;;;;;;;16.48;9.07;;;;;;;;;;4992267;28;95394;-68
2021/12/29 11:27:55;;;;;;;14.35;8.55;;;;;;;;;;4993200;28;94145;-68
2021/12/29 11:30:22;;;;;;;11.95;9.05;;;;;;;;;;4991795;28;92996;-68
2021/12/29 11:32:49;;;;;;;13.38;8.63;;;;;;;;;;4987655;28;94943;-69
2021/12/29 11:35:17;;;;;;;15.38;9.10;;;;;;;;;;4973143;28;94453;-69
2021/12/29 11:37:45;;;;;;;14.70;7.93;;;;;;;;;;4976879;28;92431;-69
2021/12/29 11:40:14;;;;;;;14.27;9.73;;;;;;;;;;4974089;28;93014;-67
2021/12/29 11:42:47;;;;;;;18.35;8.98;;;;;;;;;;4977147;28;92613;-67
2021/12/29 11:45:13;;;;;;;14.20;9.70;;;;;;;;;;4990532;28;93804;-67
2021/12/29 11:47:40;;;;;;;14.68;9.82;;;;;;;;;;4991516;28;96563;-67
2021/12/29 11:50:09;;;;;;;21.85;10.38;;;;;;;;;;4993067;28;92999;-69
2021/12/29 11:52:45;;;;;;;17.60;9.68;;;;;;;;;;4992059;28;92708;-68
2021/12/29 11:55:16;;;;;;;12.68;9.93;;;;;;;;;;4973208;28;93452;-68
2021/12/29 11:57:43;;;;;;;16.95;9.80;;;;;;;;;;4973146;28;92483;-68
2021/12/29 12:00:11;;;;;;;20.30;9.98;;;;;;;;;;4976122;28;93915;-68
2021/12/29 12:02:38;;;;;;;12.43;9.65;;;;;;;;;;4972058;28;93128;-68
2021/12/29 12:05:09;;;;;;;14.68;9.30;;;;;;;;;;4973213;28;93059;-68
2021/12/29 12:07:36;;;;;;;10.55;9.27;;;;;;;;;;4988159;28;93458;-68
2021/12/29 12:10:09;;;;;;;12.27;9.40;;;;;;;;;;4992864;28;92475;-68
2021/12/29 12:12:37;;;;;;;22.55;10.20;;;;;;;;;;4990759;28;94893;-67
2021/12/29 12:15:07;;;;;;;13.73;9.75;;;;;;;;;;4994361;28;94176;-68
2021/12/29 12:17:34;;;;;;;15.70;10.15;;;;;;;;;;4991674;28;92442;-68
2021/12/29 12:20:08;;;;;;;14.63;10.05;;;;;;;;;;4973392;28;92582;-68
2021/12/29 12:22:47;;;;;;;11.07;7.70;;;;;;;;;;4977485;28;93138;-68
2021/12/29 12:25:18;;;;;;;14.68;10.10;;;;;;;;;;4987942;28;94356;-68
2021/12/29 12:27:45;;;;;;;11.70;10.00;;;;;;;;;;4991091;28;93827;-68
2021/12/29 12:30:14;;;;;;;15.38;11.20;;;;;;;;;;4992268;28;91902;-68
2021/12/29 12:32:40;;;;;;;14.50;10.48;;;;;;;;;;4988093;28;93557;-68
2021/12/29 12:35:06;;;;;;;20.05;12.43;;;;;;;;;;4972549;28;94040;-68
2021/12/29 12:37:33;;;;;;;17.35;12.73;;;;;;;;;;4979390;28;95918;-68
2021/12/29 12:40:02;;;;;;;15.93;12.55;;;;;;;;;;4985080;28;95712;-68
2021/12/29 12:42:29;;;;;;;15.77;13.07;;;;;;;;;;4979269;28;93667;-68
2021/12/29 12:44:57;;;;;;;14.75;11.48;;;;;;;;;;4988023;28;93089;-69
2021/12/29 12:47:28;;;;;;;11.30;10.05;;;;;;;;;;4993268;28;93598;-68
2021/12/29 12:49:54;;;;;;;13.43;11.70;;;;;;;;;;4984987;28;93963;-68
2021/12/29 12:52:23;;;;;;;17.83;10.77;;;;;;;;;;4978097;28;94412;-68
2021/12/29 12:54:52;;;;;;;12.43;10.85;;;;;;;;;;4985898;28;93857;-69
2021/12/29 12:57:35;;;;;;;16.58;10.60;;;;;;;;;;4981081;28;94436;-69
2021/12/29 13:00:22;;;;;;;20.20;11.70;;;;;;;;;;4985290;28;94586;-68
2021/12/29 13:02:57;;;;;;;13.45;11.57;;;;;;;;;;4990473;28;99379;-68
2021/12/29 13:05:27;;;;;;;19.40;12.45;;;;;;;;;;4994070;28;92438;-68
2021/12/29 13:08:02;;;;;;;18.98;11.80;;;;;;;;;;4977403;28;94023;-68
2021/12/29 13:10:31;;;;;;;18.25;11.77;;;;;;;;;;4975945;28;93550;-68
2021/12/29 13:13:00;;;;;;;16.17;11.05;;;;;;;;;;4986353;28;94466;-68
2021/12/29 13:15:30;;;;;;;19.00;10.85;;;;;;;;;;4987318;28;94470;-67
2021/12/29 13:17:57;;;;;;;16.02;10.55;;;;;;;;;;4994662;28;94170;-68
2021/12/29 13:20:23;;;;;;;16.42;10.55;;;;;;;;;;4993479;28;93056;-68
2021/12/29 13:22:49;;;;;;;23.98;10.95;;;;;;;;;;4983913;28;94136;-68
2021/12/29 13:25:28;;;;;;;19.13;10.98;;;;;;;;;;4976951;28;92481;-68
2021/12/29 13:28:02;;;;;;;16.38;8.35;;;;;;;;;;4985505;28;94972;-68
2021/12/29 13:30:30;;;;;;;15.55;8.75;;;;;;;;;;4994293;28;93281;-68
2021/12/29 13:32:58;;;;;;;15.32;10.45;;;;;;;;;;4994473;28;93363;-68
2021/12/29 13:35:31;;;;;;;21.80;9.90;;;;;;;;;;5000513;28;92572;-68
2021/12/29 13:37:59;;;;;;;17.48;9.88;;;;;;;;;;4984548;28;92877;-67
2021/12/29 13:40:26;;;;;;;12.68;10.00;;;;;;;;;;4986057;28;92853;-68
2021/12/29 13:42:53;;;;;;;13.30;9.90;;;;;;;;;;4998282;28;94788;-68
2021/12/29 13:45:24;;;;;;;14.38;10.15;;;;;;;;;;4999604;28;92096;-68
2021/12/29 13:47:51;;;;;;;15.88;10.15;;;;;;;;;;4994933;28;93221;-67
2021/12/29 13:50:17;;;;;;;16.75;9.45;;;;;;;;;;4984186;27;92948;-67
2021/12/29 13:52:54;;;;;;;20.75;10.25;;;;;;;;;;4978450;28;94872;-67
2021/12/29 13:55:28;;;;;;;19.10;10.73;;;;;;;;;;4983117;28;94211;-69
2021/12/29 13:57:55;;;;;;;15.57;9.68;;;;;;;;;;4979278;28;94561;-68
2021/12/29 14:00:21;;;;;;;14.40;9.70;;;;;;;;;;4993665;28;93080;-68
2021/12/29 14:02:48;;;;;;;15.93;10.35;;;;;;;;;;4982642;28;94636;-67
2021/12/29 14:05:15;;;;;;;20.20;10.43;;;;;;;;;;4987525;28;94098;-69
2021/12/29 14:07:41;;;;;;;20.02;10.77;;;;;;;;;;4995319;28;94467;-68
2021/12/29 14:10:08;;;;;;;21.38;12.00;;;;;;;;;;4994439;28;91726;-69
2021/12/29 14:12:36;;;;;;;20.30;11.18;;;;;;;;;;4992386;28;93049;-69
2021/12/29 14:15:09;;;;;;;25.70;11.88;;;;;;;;;;4982290;28;95594;-69
2021/12/29 14:17:47;;;;;;;22.55;11.02;;;;;;;;;;4990514;28;95047;-67
2021/12/29 14:20:15;;;;;;;26.63;11.18;;;;;;;;;;4990632;28;96406;-68
2021/12/29 14:22:41;;;;;;;16.90;10.32;;;;;;;;;;4993859;28;94273;-69
2021/12/29 14:25:32;;;;;;;14.85;10.20;;;;;;;;;;4991263;28;92850;-69
2021/12/29 14:27:58;;;;;;;25.75;12.30;;;;;;;;;;4988851;28;93902;-69
2021/12/29 14:30:28;;;;;;;23.88;12.77;;;;;;;;;;4985994;28;94262;-69
2021/12/29 14:32:56;;;;;;;17.75;11.63;;;;;;;;;;4993074;28;92410;-69
2021/12/29 14:35:24;;;;;;;21.73;13.32;;;;;;;;;;4990450;28;93779;-69